To NAV CANADA Home Page Login to a new session Search on AWWS site Feedback and Comments Disclaimer Vers la page française équivalente Tips FAQ What's new on the site To the Forecasts and Observations / NOTAM section To "File a Flight Plan" website Publications and other links Update of the User's profile FIC Telephone Numbers My Weather Data Folder Route Weather Data Regional Weather Data Local Weather Data To the Forecasts and Observations / NOTAM section
Request Generated 09/29/2016 at 20:21:40 UTC . Weather information available at that time is displayed.

METAR/TAF

YARMOUTH/NS    

METAR CYQI 292000Z 03015G21KT 15SM FEW035 OVC250 17/07 A3042 RMK
SC1CI8 SC TR SLP302=
METAR CYQI 291900Z 04013G22KT 15SM FEW035 OVC250 18/09 A3040 RMK
SC1CI8 SC TR SLP297=
METAR CYQI 291800Z 04018KT 360V090 15SM FEW035 OVC250 18/08 A3040 RMK
SC1CI8 SC TR SLP298=

TAF CYQI 291738Z 2918/3006 03012G22KT P6SM FEW030
BECMG 2922/2924 03010KT
RMK NXT FCST BY 300000Z=
Your time UTC time
Weather data provided by Environment Canada and NAV CANADA